Hidden Valley Lake, CA (95467)

3:45 PM PST on March 03, 2015 (GMT -0800)
Riley's Place,10th Tee Hidden Valley Lake | Change Station
CLOSE
Current Station
Personal Weather Station
Location: Hidden Valley Lake, CA
Elevation: 980 ft
Nearby Weather Stations

Elev 980 ft 38.80 °N, 122.55 °W | Updated 31 seconds ago

Clear
Clear
62.3 °F
Feels Like 62.3 °F
N
2.0
Wind Variable Wind from SW
Gusts 5.0 mph

Today
High -- | Low -- °F
--% Chance of Precip.
Yesterday
High -- | Low -- °F
Precip. -- in
6:40 AM 6:05 PM
Waxing Gibbous, 97% visible
Pressure 29.95 in
Visibility 10.0 miles
Clouds Scattered Clouds 3000 ft
Mostly Cloudy 15000 ft
Dew Point 38 °F
Humidity 41%
Rainfall 0.00 in
Snow Depth Not available.
UV 2 out of 12
Pollen Not available.
Air Quality Not available.
Flu Activity Not available.
METAR KSTS 032253Z 18007KT 10SM SCT030 BKN150 18/06 A2996 RMK AO2 SLP140 T01780061

More Conditions Fewer Conditions

Pressure 29.95 in
Visibility 10.0 miles
Clouds Scattered Clouds 3000 ft
Mostly Cloudy 15000 ft
Dew Point 38 °F
Humidity 41%
Rainfall 0.00 in
Snow Depth Not available.
UV 2 out of 12
Pollen Not available.
Air Quality Not available.
Flu Activity Not available.
METAR KSTS 032253Z 18007KT 10SM SCT030 BKN150 18/06 A2996 RMK AO2 SLP140 T01780061

More Conditions Fewer Conditions

10-Day Weather Forecast

Almanac

Astronomy

Mar. 03, 2015 Rise Set
Actual Time
Civil Twilight
Nautical Twilight
Astronomical Twilight
Moon
Length of Visible Light
Length of Day
Tomorrow will be .
, % of the Moon is Illuminated

Today's Extremes

State Highs State Lows

Community

WunderPhotos

Upload Photos

1,802,305 photos uploaded!

WunderBlogs® & News

Nearby

Air Quality

  Air Quality AQ Index Pollutant
Not available.

Snow Depth

Station Depth Elevation

Earthquake Activity

City Distance Mag. Time & Date
Minimum magnitude displayed is 2.5.

Coastal Water Temperatures

Place Temperature

Nearby Weather Stations